sensor_id;sensor_type;location;lat;lon;timestamp;P1;durP1;ratioP1;P2;durP2;ratioP2
42092;SDS011;28974;50.316;18.960;2023-07-29T00:05:38;19.35;;;13.90;;
42092;SDS011;28974;50.316;18.960;2023-07-29T00:17:38;20.92;;;13.77;;
42092;SDS011;28974;50.316;18.960;2023-07-29T00:29:38;21.13;;;13.63;;
42092;SDS011;28974;50.316;18.960;2023-07-29T00:41:39;25.58;;;14.52;;
42092;SDS011;28974;50.316;18.960;2023-07-29T00:53:39;23.13;;;14.95;;
42092;SDS011;28974;50.316;18.960;2023-07-29T01:06:01;21.00;;;14.10;;
42092;SDS011;28974;50.316;18.960;2023-07-29T01:18:05;20.90;;;12.95;;
42092;SDS011;28974;50.316;18.960;2023-07-29T01:30:06;21.05;;;13.80;;
42092;SDS011;28974;50.316;18.960;2023-07-29T01:42:07;23.00;;;12.70;;
42092;SDS011;28974;50.316;18.960;2023-07-29T01:54:07;22.73;;;13.68;;
42092;SDS011;28974;50.316;18.960;2023-07-29T02:06:08;23.70;;;13.27;;
42092;SDS011;28974;50.316;18.960;2023-07-29T02:18:09;21.85;;;13.77;;
42092;SDS011;28974;50.316;18.960;2023-07-29T02:30:10;21.15;;;13.15;;
42092;SDS011;28974;50.316;18.960;2023-07-29T02:42:10;26.63;;;14.75;;
42092;SDS011;28974;50.316;18.960;2023-07-29T02:54:11;21.40;;;13.70;;
42092;SDS011;28974;50.316;18.960;2023-07-29T03:06:12;19.05;;;13.45;;
42092;SDS011;28974;50.316;18.960;2023-07-29T03:18:13;22.48;;;14.10;;
42092;SDS011;28974;50.316;18.960;2023-07-29T03:30:13;22.45;;;13.23;;
42092;SDS011;28974;50.316;18.960;2023-07-29T03:42:14;30.90;;;14.02;;
42092;SDS011;28974;50.316;18.960;2023-07-29T03:54:14;23.15;;;13.70;;
42092;SDS011;28974;50.316;18.960;2023-07-29T04:06:15;25.80;;;14.43;;
42092;SDS011;28974;50.316;18.960;2023-07-29T04:18:15;20.80;;;14.25;;
42092;SDS011;28974;50.316;18.960;2023-07-29T04:30:20;22.70;;;14.35;;
42092;SDS011;28974;50.316;18.960;2023-07-29T04:42:20;23.40;;;12.27;;
42092;SDS011;28974;50.316;18.960;2023-07-29T04:54:24;25.50;;;11.60;;
42092;SDS011;28974;50.316;18.960;2023-07-29T05:06:28;21.65;;;10.40;;
42092;SDS011;28974;50.316;18.960;2023-07-29T05:18:28;14.32;;;9.77;;
42092;SDS011;28974;50.316;18.960;2023-07-29T05:30:29;20.75;;;10.23;;
42092;SDS011;28974;50.316;18.960;2023-07-29T05:42:34;21.33;;;9.48;;
42092;SDS011;28974;50.316;18.960;2023-07-29T05:54:35;12.75;;;8.50;;
42092;SDS011;28974;50.316;18.960;2023-07-29T06:06:35;14.27;;;8.43;;
42092;SDS011;28974;50.316;18.960;2023-07-29T06:18:36;9.80;;;6.57;;
42092;SDS011;28974;50.316;18.960;2023-07-29T06:30:36;13.10;;;5.15;;
42092;SDS011;28974;50.316;18.960;2023-07-29T06:42:36;16.08;;;5.63;;
42092;SDS011;28974;50.316;18.960;2023-07-29T06:54:37;7.68;;;5.20;;
42092;SDS011;28974;50.316;18.960;2023-07-29T07:06:37;6.28;;;4.13;;
42092;SDS011;28974;50.316;18.960;2023-07-29T07:18:37;13.18;;;3.80;;
42092;SDS011;28974;50.316;18.960;2023-07-29T07:30:41;6.63;;;4.18;;
42092;SDS011;28974;50.316;18.960;2023-07-29T07:42:41;6.18;;;4.32;;
42092;SDS011;28974;50.316;18.960;2023-07-29T07:54:42;9.52;;;3.72;;
42092;SDS011;28974;50.316;18.960;2023-07-29T08:06:42;11.75;;;3.22;;
42092;SDS011;28974;50.316;18.960;2023-07-29T08:18:42;6.03;;;2.80;;
42092;SDS011;28974;50.316;18.960;2023-07-29T08:30:42;7.88;;;3.13;;
42092;SDS011;28974;50.316;18.960;2023-07-29T08:42:43;6.97;;;3.05;;
42092;SDS011;28974;50.316;18.960;2023-07-29T08:54:45;6.45;;;3.17;;
42092;SDS011;28974;50.316;18.960;2023-07-29T09:06:46;4.43;;;2.42;;
42092;SDS011;28974;50.316;18.960;2023-07-29T09:18:47;6.40;;;2.65;;
42092;SDS011;28974;50.316;18.960;2023-07-29T09:30:52;4.07;;;2.55;;
42092;SDS011;28974;50.316;18.960;2023-07-29T09:42:57;5.82;;;2.60;;
42092;SDS011;28974;50.316;18.960;2023-07-29T09:54:57;3.17;;;2.45;;
42092;SDS011;28974;50.316;18.960;2023-07-29T10:06:57;3.92;;;2.35;;
42092;SDS011;28974;50.316;18.960;2023-07-29T10:18:59;4.22;;;2.45;;
42092;SDS011;28974;50.316;18.960;2023-07-29T10:30:59;3.40;;;2.42;;
42092;SDS011;28974;50.316;18.960;2023-07-29T10:43:08;6.40;;;1.98;;
42092;SDS011;28974;50.316;18.960;2023-07-29T11:07:27;5.40;;;2.95;;
42092;SDS011;28974;50.316;18.960;2023-07-29T11:19:28;8.60;;;2.88;;
42092;SDS011;28974;50.316;18.960;2023-07-29T11:31:38;3.63;;;2.42;;
42092;SDS011;28974;50.316;18.960;2023-07-29T11:43:39;3.20;;;2.70;;
42092;SDS011;28974;50.316;18.960;2023-07-29T11:55:40;3.90;;;2.95;;
42092;SDS011;28974;50.316;18.960;2023-07-29T12:07:41;4.28;;;3.17;;
42092;SDS011;28974;50.316;18.960;2023-07-29T12:19:42;5.93;;;3.67;;
42092;SDS011;28974;50.316;18.960;2023-07-29T12:31:47;4.20;;;2.87;;
42092;SDS011;28974;50.316;18.960;2023-07-29T12:43:48;4.05;;;2.90;;
42092;SDS011;28974;50.316;18.960;2023-07-29T12:55:48;4.13;;;2.60;;
42092;SDS011;28974;50.316;18.960;2023-07-29T13:07:48;3.22;;;2.55;;
42092;SDS011;28974;50.316;18.960;2023-07-29T13:19:49;1.98;;;1.77;;
42092;SDS011;28974;50.316;18.960;2023-07-29T13:31:54;3.97;;;1.63;;
42092;SDS011;28974;50.316;18.960;2023-07-29T13:43:54;2.35;;;1.45;;
42092;SDS011;28974;50.316;18.960;2023-07-29T13:56:00;2.77;;;2.23;;
42092;SDS011;28974;50.316;18.960;2023-07-29T14:08:00;3.95;;;1.92;;
42092;SDS011;28974;50.316;18.960;2023-07-29T14:20:00;1.90;;;1.77;;
42092;SDS011;28974;50.316;18.960;2023-07-29T14:32:01;1.60;;;1.40;;
42092;SDS011;28974;50.316;18.960;2023-07-29T14:44:01;3.63;;;1.33;;
42092;SDS011;28974;50.316;18.960;2023-07-29T14:56:01;3.20;;;2.00;;
42092;SDS011;28974;50.316;18.960;2023-07-29T15:08:01;2.53;;;2.00;;
42092;SDS011;28974;50.316;18.960;2023-07-29T15:20:02;2.75;;;1.90;;
42092;SDS011;28974;50.316;18.960;2023-07-29T15:32:03;2.08;;;1.77;;
42092;SDS011;28974;50.316;18.960;2023-07-29T15:44:03;3.28;;;1.92;;
42092;SDS011;28974;50.316;18.960;2023-07-29T15:56:04;2.38;;;1.58;;
42092;SDS011;28974;50.316;18.960;2023-07-29T16:08:04;3.17;;;2.03;;
42092;SDS011;28974;50.316;18.960;2023-07-29T16:20:04;2.80;;;2.00;;
42092;SDS011;28974;50.316;18.960;2023-07-29T16:32:05;2.28;;;1.90;;
42092;SDS011;28974;50.316;18.960;2023-07-29T16:44:05;2.42;;;1.83;;
42092;SDS011;28974;50.316;18.960;2023-07-29T16:56:06;2.70;;;1.83;;
42092;SDS011;28974;50.316;18.960;2023-07-29T17:08:06;3.13;;;2.58;;
42092;SDS011;28974;50.316;18.960;2023-07-29T17:20:06;3.17;;;1.50;;
42092;SDS011;28974;50.316;18.960;2023-07-29T17:32:06;7.10;;;1.75;;
42092;SDS011;28974;50.316;18.960;2023-07-29T17:44:07;3.33;;;2.05;;
42092;SDS011;28974;50.316;18.960;2023-07-29T17:56:07;1.50;;;1.33;;
42092;SDS011;28974;50.316;18.960;2023-07-29T18:08:08;4.27;;;1.43;;
42092;SDS011;28974;50.316;18.960;2023-07-29T18:20:08;3.15;;;1.95;;
42092;SDS011;28974;50.316;18.960;2023-07-29T18:32:12;3.53;;;2.17;;
42092;SDS011;28974;50.316;18.960;2023-07-29T18:44:12;5.75;;;1.90;;
42092;SDS011;28974;50.316;18.960;2023-07-29T18:56:13;5.82;;;1.83;;
42092;SDS011;28974;50.316;18.960;2023-07-29T19:08:13;4.32;;;1.23;;
42092;SDS011;28974;50.316;18.960;2023-07-29T19:20:13;8.68;;;1.83;;
42092;SDS011;28974;50.316;18.960;2023-07-29T19:32:13;4.38;;;2.50;;
42092;SDS011;28974;50.316;18.960;2023-07-29T19:44:13;10.82;;;2.97;;
42092;SDS011;28974;50.316;18.960;2023-07-29T19:56:14;8.50;;;4.13;;
42092;SDS011;28974;50.316;18.960;2023-07-29T20:08:14;10.05;;;3.50;;
42092;SDS011;28974;50.316;18.960;2023-07-29T20:20:14;15.80;;;7.00;;
42092;SDS011;28974;50.316;18.960;2023-07-29T20:32:15;9.52;;;4.20;;
42092;SDS011;28974;50.316;18.960;2023-07-29T20:44:15;9.25;;;3.75;;
42092;SDS011;28974;50.316;18.960;2023-07-29T20:56:19;6.60;;;3.20;;
42092;SDS011;28974;50.316;18.960;2023-07-29T21:08:20;5.30;;;3.10;;
42092;SDS011;28974;50.316;18.960;2023-07-29T21:20:20;4.63;;;3.20;;
42092;SDS011;28974;50.316;18.960;2023-07-29T21:32:20;3.85;;;2.60;;
42092;SDS011;28974;50.316;18.960;2023-07-29T21:44:26;7.68;;;2.38;;
42092;SDS011;28974;50.316;18.960;2023-07-29T21:56:26;4.10;;;2.40;;
42092;SDS011;28974;50.316;18.960;2023-07-29T22:08:26;3.70;;;2.28;;
42092;SDS011;28974;50.316;18.960;2023-07-29T22:20:26;7.63;;;2.65;;
42092;SDS011;28974;50.316;18.960;2023-07-29T22:32:27;5.50;;;2.30;;
42092;SDS011;28974;50.316;18.960;2023-07-29T22:44:27;5.72;;;2.08;;
42092;SDS011;28974;50.316;18.960;2023-07-29T22:56:27;10.95;;;2.38;;
42092;SDS011;28974;50.316;18.960;2023-07-29T23:08:28;3.78;;;2.15;;
42092;SDS011;28974;50.316;18.960;2023-07-29T23:20:30;7.35;;;2.35;;
42092;SDS011;28974;50.316;18.960;2023-07-29T23:32:30;4.03;;;2.20;;
42092;SDS011;28974;50.316;18.960;2023-07-29T23:44:31;4.97;;;2.60;;
42092;SDS011;28974;50.316;18.960;2023-07-29T23:56:31;3.97;;;2.40;;
